Time;durP1;ratioP1;P1;durP2;ratioP2;P2;SDS_P1;SDS_P2;PMS_P1;PMS_P2;Temp;Humidity;BMP_temperature;BMP_pressure;BME280_temperature;BME280_humidity;BME280_pressure;Samples;Min_cycle;Max_cycle;Signal;HPM_P1;HPM_P2
2023/05/22 00:00:07;;;;;;;;;19.25;16.75;;;;;-149.35;100.00;64108.03;5034034;28;46038;-63
2023/05/22 00:02:37;;;;;;;;;16.75;15.25;;;;;-149.35;100.00;64108.03;5033804;28;45378;-59
2023/05/22 00:05:05;;;;;;;;;15.60;14.20;;;;;-149.35;100.00;64108.03;5032998;28;45263;-62
2023/05/22 00:07:31;;;;;;;;;17.40;14.20;;;;;-149.35;100.00;64108.03;5016934;28;45379;-63
2023/05/22 00:09:56;;;;;;;;;15.25;13.75;;;;;-149.35;100.00;64108.03;5036987;28;46500;-63
2023/05/22 00:12:22;;;;;;;;;15.00;15.00;;;;;-149.35;100.00;64108.03;5037311;28;45322;-56
2023/05/22 00:14:47;;;;;;;;;17.25;15.25;;;;;-149.35;100.00;64108.03;5037240;28;45485;-63
2023/05/22 00:17:13;;;;;;;;;17.75;15.25;;;;;-149.35;100.00;64108.03;5011103;28;45867;-63
2023/05/22 00:19:39;;;;;;;;;15.80;14.80;;;;;-149.35;100.00;64108.03;5037078;28;46574;-60
2023/05/22 00:22:05;;;;;;;;;14.20;13.20;;;;;-149.35;100.00;64108.03;5037216;28;45283;-61
2023/05/22 00:24:31;;;;;;;;;15.75;15.00;;;;;-149.35;100.00;64108.03;5037259;28;45471;-62
2023/05/22 00:26:56;;;;;;;;;17.50;14.50;;;;;-149.35;100.00;64108.03;5052661;28;45405;-63
2023/05/22 00:29:22;;;;;;;;;17.50;17.00;;;;;-149.35;100.00;64108.03;5037322;28;46393;-58
2023/05/22 00:31:47;;;;;;;;;16.50;15.00;;;;;-149.35;100.00;64108.03;5052417;28;45369;-62
2023/05/22 00:34:13;;;;;;;;;15.25;13.75;;;;;-149.35;100.00;64108.03;5036862;28;45245;-62
2023/05/22 00:36:38;;;;;;;;;19.75;16.00;;;;;-149.35;100.00;64108.03;5037568;28;45613;-58
2023/05/22 00:39:04;;;;;;;;;16.75;16.75;;;;;-149.35;100.00;64108.03;5037210;28;45450;-63
2023/05/22 00:41:32;;;;;;;;;16.50;13.50;;;;;-149.35;100.00;64108.03;5035934;28;45440;-62
2023/05/22 00:43:59;;;;;;;;;15.80;13.60;;;;;-149.35;100.00;64108.03;5052132;28;45387;-63
2023/05/22 00:46:25;;;;;;;;;17.60;15.60;;;;;-149.35;100.00;64108.03;5037094;28;45296;-62
2023/05/22 00:48:51;;;;;;;;;16.00;15.25;;;;;-149.35;100.00;64108.03;5052333;28;46343;-62
2023/05/22 00:51:18;;;;;;;;;15.00;15.00;;;;;-149.35;100.00;64108.03;5037031;28;45334;-61
2023/05/22 00:53:45;;;;;;;;;17.80;15.60;;;;;-149.35;100.00;64108.03;5037266;28;45392;-60
2023/05/22 00:56:11;;;;;;;;;13.60;12.60;;;;;-149.35;100.00;64108.03;5036040;28;45414;-56
2023/05/22 00:58:36;;;;;;;;;15.40;13.20;;;;;-149.35;100.00;64108.03;5036191;28;46669;-63
2023/05/22 01:01:02;;;;;;;;;16.50;12.75;;;;;-149.35;100.00;64108.03;5052435;28;45382;-62
2023/05/22 01:03:28;;;;;;;;;15.00;14.00;;;;;-149.35;100.00;64108.03;5052051;28;45424;-62
2023/05/22 01:05:54;;;;;;;;;15.40;13.80;;;;;-149.35;100.00;64108.03;5035806;28;45385;-56
2023/05/22 01:08:20;;;;;;;;;17.50;15.00;;;;;-149.35;100.00;64108.03;5036391;28;45791;-62
2023/05/22 01:10:46;;;;;;;;;20.50;14.75;;;;;-149.35;100.00;64108.03;5051713;28;45466;-62
2023/05/22 01:13:46;;;;;;;;;16.25;13.25;;;;;-149.35;100.00;64108.03;5052135;28;45320;-63
2023/05/22 01:16:20;;;;;;;;;13.00;13.00;;;;;-149.35;100.00;64108.03;5024917;28;45467;-62
2023/05/22 01:18:55;;;;;;;;;14.80;13.60;;;;;-149.35;100.00;64108.03;5034087;28;47145;-62
2023/05/22 01:21:53;;;;;;;;;11.80;11.80;;;;;-149.35;100.00;64108.03;5018576;28;45443;-62
2023/05/22 01:24:56;;;;;;;;;13.00;12.20;;;;;-149.35;100.00;64108.03;5037057;28;45341;-62
2023/05/22 01:27:33;;;;;;;;;15.40;14.20;;;;;-149.35;100.00;64108.03;5036857;28;45900;-63
2023/05/22 01:30:30;;;;;;;;;15.60;15.40;;;;;-149.35;100.00;64108.03;5019043;28;46721;-62
2023/05/22 01:32:56;;;;;;;;;14.00;13.20;;;;;-149.35;100.00;64108.03;5036074;28;45432;-62
2023/05/22 01:35:21;;;;;;;;;13.75;11.50;;;;;-149.35;100.00;64108.03;5036385;28;45426;-62
2023/05/22 01:37:47;;;;;;;;;8.75;8.75;;;;;-149.35;100.00;64108.03;5036565;28;45521;-62
2023/05/22 01:40:12;;;;;;;;;14.25;13.25;;;;;-149.35;100.00;64108.03;5035727;28;45468;-61
2023/05/22 01:42:40;;;;;;;;;15.75;14.25;;;;;-149.35;100.00;64108.03;5018514;28;45324;-63
2023/05/22 01:45:08;;;;;;;;;11.40;11.40;;;;;-149.35;100.00;64108.03;5051380;28;45385;-62
2023/05/22 01:47:34;;;;;;;;;17.60;16.00;;;;;-149.35;100.00;64108.03;5036536;28;45366;-62
2023/05/22 01:50:00;;;;;;;;;15.20;15.20;;;;;-149.35;100.00;64108.03;5036287;28;47643;-62
2023/05/22 01:52:51;;;;;;;;;14.80;14.40;;;;;-149.35;100.00;64108.03;5036223;28;45440;-63
2023/05/22 01:55:26;;;;;;;;;14.60;13.20;;;;;-149.35;100.00;64108.03;5036125;28;45312;-63
2023/05/22 01:58:10;;;;;;;;;13.00;12.00;;;;;-149.35;100.00;64108.03;5051215;28;45519;-62
2023/05/22 02:00:36;;;;;;;;;12.60;11.60;;;;;-149.35;100.00;64108.03;5035648;28;46481;-63
2023/05/22 02:03:12;;;;;;;;;15.40;14.20;;;;;-149.35;100.00;64108.03;4981112;28;45470;-61
2023/05/22 02:05:38;;;;;;;;;14.20;13.40;;;;;-149.35;100.00;64108.03;5051311;28;45358;-61
2023/05/22 02:08:06;;;;;;;;;17.00;12.75;;;;;-149.35;100.00;64108.03;5034968;28;45387;-56
2023/05/22 02:10:32;;;;;;;;;11.20;11.20;;;;;-149.35;100.00;64108.03;5034359;28;46152;-61
2023/05/22 02:12:57;;;;;;;;;12.50;12.50;;;;;-149.35;100.00;64108.03;5034776;28;45427;-62
2023/05/22 02:15:23;;;;;;;;;15.00;13.00;;;;;-149.35;100.00;64108.03;5051314;28;45335;-61
2023/05/22 02:17:48;;;;;;;;;16.00;15.00;;;;;-149.35;100.00;64108.03;5035734;28;45307;-61
2023/05/22 02:20:14;;;;;;;;;16.75;15.00;;;;;-149.35;100.00;64108.03;5036048;28;46466;-61
2023/05/22 02:22:45;;;;;;;;;13.60;12.20;;;;;-149.35;100.00;64108.03;5035774;28;45366;-62
2023/05/22 02:25:15;;;;;;;;;15.40;14.20;;;;;-149.35;100.00;64108.03;5036113;28;45348;-61
2023/05/22 02:27:45;;;;;;;;;15.60;13.20;;;;;-149.35;100.00;64108.03;5018119;28;45573;-61
2023/05/22 02:30:11;;;;;;;;;19.00;15.40;;;;;-149.35;100.00;64108.03;5034106;28;48109;-62
2023/05/22 02:32:38;;;;;;;;;12.80;11.60;;;;;-149.35;100.00;64108.03;5035663;28;45307;-56
2023/05/22 02:35:03;;;;;;;;;13.60;12.60;;;;;-149.35;100.00;64108.03;5035302;28;45272;-61
2023/05/22 02:37:29;;;;;;;;;14.75;13.75;;;;;-149.35;100.00;64108.03;5035108;28;45301;-61
2023/05/22 02:39:56;;;;;;;;;16.80;13.40;;;;;-149.35;100.00;64108.03;5033538;28;47620;-55
2023/05/22 02:42:21;;;;;;;;;14.60;14.00;;;;;-149.35;100.00;64108.03;5016666;28;45350;-61
2023/05/22 02:44:47;;;;;;;;;12.75;11.50;;;;;-149.35;100.00;64108.03;5035239;28;45389;-62
2023/05/22 02:47:12;;;;;;;;;16.75;13.25;;;;;-149.35;100.00;64108.03;5035429;28;45451;-59
2023/05/22 02:49:38;;;;;;;;;13.25;11.50;;;;;-149.35;100.00;64108.03;5034284;28;45880;-61
2023/05/22 02:52:03;;;;;;;;;14.50;12.00;;;;;-149.35;100.00;64108.03;5033481;28;45278;-61
2023/05/22 02:54:29;;;;;;;;;16.00;12.75;;;;;-149.35;100.00;64108.03;5050751;28;45314;-62
2023/05/22 02:56:55;;;;;;;;;12.50;12.50;;;;;-149.35;100.00;64108.03;5050830;28;45404;-61
2023/05/22 02:59:21;;;;;;;;;13.80;11.20;;;;;-149.35;100.00;64108.03;5034913;28;46405;-62
2023/05/22 03:01:47;;;;;;;;;13.00;12.25;;;;;-149.35;100.00;64108.03;5034801;28;45289;-62
2023/05/22 03:04:12;;;;;;;;;16.00;14.60;;;;;-149.35;100.00;64108.03;5026404;28;45213;-62
2023/05/22 03:06:38;;;;;;;;;10.50;10.50;;;;;-149.35;100.00;64108.03;5052979;28;45252;-62
2023/05/22 03:09:04;;;;;;;;;12.25;12.25;;;;;-149.35;100.00;64108.03;5036632;28;48380;-59
2023/05/22 03:11:30;;;;;;;;;15.75;13.50;;;;;-149.35;100.00;64108.03;5054924;28;45276;-59
2023/05/22 03:13:56;;;;;;;;;15.20;14.80;;;;;-149.35;100.00;64108.03;5055005;28;45229;-62
2023/05/22 03:16:22;;;;;;;;;14.00;12.75;;;;;-149.35;100.00;64108.03;5050279;28;45387;-57
2023/05/22 03:18:49;;;;;;;;;14.25;12.75;;;;;-149.35;100.00;64108.03;5016519;28;45981;-57
2023/05/22 03:21:14;;;;;;;;;14.40;13.40;;;;;-149.35;100.00;64108.03;5034636;28;45509;-62
2023/05/22 03:23:40;;;;;;;;;14.25;12.50;;;;;-149.35;100.00;64108.03;5034649;28;45461;-62
2023/05/22 03:26:05;;;;;;;;;14.75;13.00;;;;;-149.35;100.00;64108.03;5035094;28;45363;-62
2023/05/22 03:28:30;;;;;;;;;16.00;14.00;;;;;-149.35;100.00;64108.03;5034648;28;45625;-62
2023/05/22 03:30:56;;;;;;;;;12.25;12.25;;;;;-149.35;100.00;64108.03;5016684;28;45382;-62
2023/05/22 03:33:21;;;;;;;;;14.00;12.00;;;;;-149.35;100.00;64108.03;5034621;28;45491;-62
2023/05/22 03:35:47;;;;;;;;;14.00;13.50;;;;;-149.35;100.00;64108.03;5033311;28;45343;-62
2023/05/22 03:38:12;;;;;;;;;14.75;14.75;;;;;-149.35;100.00;64108.03;5034460;28;45717;-61
2023/05/22 03:40:38;;;;;;;;;15.75;14.00;;;;;-149.35;100.00;64108.03;5033389;28;45542;-62
2023/05/22 03:43:04;;;;;;;;;15.00;15.00;;;;;-149.35;100.00;64108.03;5034059;28;45376;-61
2023/05/22 03:45:29;;;;;;;;;19.40;14.20;;;;;-149.35;100.00;64108.03;5049915;28;45347;-62
2023/05/22 03:47:55;;;;;;;;;14.75;11.00;;;;;-149.35;100.00;64108.03;5034463;28;46009;-56
2023/05/22 03:50:20;;;;;;;;;13.50;12.75;;;;;-149.35;100.00;64108.03;5034327;28;45373;-62
2023/05/22 03:52:46;;;;;;;;;17.00;14.75;;;;;-149.35;100.00;64108.03;5034366;28;45346;-62
2023/05/22 03:55:11;;;;;;;;;13.75;13.25;;;;;-149.35;100.00;64108.03;5035095;28;45342;-62
2023/05/22 03:57:37;;;;;;;;;15.75;14.00;;;;;-149.35;100.00;64108.03;5033938;28;46059;-63
2023/05/22 04:00:08;;;;;;;;;14.00;13.00;;;;;-149.35;100.00;64108.03;5034341;28;45377;-62
2023/05/22 04:02:34;;;;;;;;;12.00;12.00;;;;;-149.35;100.00;64108.03;5034107;28;45208;-62
2023/05/22 04:05:00;;;;;;;;;17.40;14.40;;;;;-149.35;100.00;64108.03;5034175;28;45209;-62
2023/05/22 04:07:25;;;;;;;;;13.50;13.50;;;;;-149.35;100.00;64108.03;5033829;28;46034;-62
2023/05/22 04:09:51;;;;;;;;;14.75;12.75;;;;;-149.35;100.00;64108.03;5033706;28;45252;-62
2023/05/22 04:12:16;;;;;;;;;13.00;11.25;;;;;-149.35;100.00;64108.03;5034221;28;45227;-61
2023/05/22 04:14:41;;;;;;;;;15.00;15.00;;;;;-149.35;100.00;64108.03;5049363;28;45413;-63
2023/05/22 04:17:07;;;;;;;;;14.50;14.50;;;;;-149.35;100.00;64108.03;5033052;28;46057;-62
2023/05/22 04:19:32;;;;;;;;;11.25;10.75;;;;;-149.35;100.00;64108.03;5033600;28;45299;-62
2023/05/22 04:21:58;;;;;;;;;15.50;12.50;;;;;-149.35;100.00;64108.03;5032510;28;45452;-62
2023/05/22 04:24:24;;;;;;;;;16.75;12.75;;;;;-149.35;100.00;64108.03;5034123;28;45885;-62
2023/05/22 04:26:49;;;;;;;;;15.40;14.20;;;;;-149.35;100.00;64108.03;5033575;28;45390;-62
2023/05/22 04:29:15;;;;;;;;;15.50;13.25;;;;;-149.35;100.00;64108.03;5015616;28;45423;-62
2023/05/22 04:31:43;;;;;;;;;15.00;13.50;;;;;-149.35;100.00;64108.03;5033859;28;45455;-61
2023/05/22 04:34:14;;;;;;;;;13.60;12.80;;;;;-149.35;100.00;64108.03;5033177;28;45307;-62
2023/05/22 04:36:39;;;;;;;;;12.60;12.60;;;;;-149.35;100.00;64108.03;5032210;28;45465;-62
2023/05/22 04:39:05;;;;;;;;;17.75;13.25;;;;;-149.35;100.00;64108.03;5031997;28;45800;-61
2023/05/22 04:41:31;;;;;;;;;11.60;10.20;;;;;-149.35;100.00;64108.03;5034031;28;45407;-57
2023/05/22 04:43:57;;;;;;;;;10.50;10.50;;;;;-149.35;100.00;64108.03;5033682;28;45225;-62
2023/05/22 04:46:23;;;;;;;;;23.60;15.20;;;;;-149.35;100.00;64108.03;5033102;28;46261;-62
2023/05/22 04:48:48;;;;;;;;;16.00;15.50;;;;;-149.35;100.00;64108.03;5007960;28;45418;-56
2023/05/22 04:51:14;;;;;;;;;16.75;13.25;;;;;-149.35;100.00;64108.03;5032536;28;45275;-62
2023/05/22 04:53:39;;;;;;;;;15.50;12.50;;;;;-149.35;100.00;64108.03;5030368;28;45361;-61
2023/05/22 04:56:05;;;;;;;;;16.50;12.75;;;;;-149.35;100.00;64108.03;5036044;28;45585;-62
2023/05/22 04:58:31;;;;;;;;;11.80;11.80;;;;;-149.35;100.00;64108.03;5036662;28;45331;-63
2023/05/22 05:00:57;;;;;;;;;12.75;12.75;;;;;-149.35;100.00;64108.03;5037118;28;45353;-62
2023/05/22 05:03:27;;;;;;;;;15.80;12.60;;;;;-149.35;100.00;64108.03;5036965;28;45873;-62
2023/05/22 05:05:52;;;;;;;;;12.00;11.00;;;;;-149.35;100.00;64108.03;5036553;28;45442;-61
2023/05/22 05:08:18;;;;;;;;;13.25;13.25;;;;;-149.35;100.00;64108.03;5019014;28;45497;-62
2023/05/22 05:10:43;;;;;;;;;14.75;11.50;;;;;-149.35;100.00;64108.03;5036284;28;45641;-62
2023/05/22 05:13:09;;;;;;;;;14.75;14.00;;;;;-149.35;100.00;64108.03;5036930;28;45493;-62
2023/05/22 05:15:34;;;;;;;;;13.25;12.25;;;;;-149.35;100.00;64108.03;5018399;28;46214;-61
2023/05/22 05:18:00;;;;;;;;;18.75;17.00;;;;;-149.35;100.00;64108.03;5035994;28;45223;-63
2023/05/22 05:20:26;;;;;;;;;13.75;12.50;;;;;-149.35;100.00;64108.03;5035835;28;45223;-62
2023/05/22 05:22:51;;;;;;;;;15.00;13.40;;;;;-149.35;100.00;64108.03;5036501;28;45301;-61
2023/05/22 05:25:17;;;;;;;;;14.25;14.25;;;;;-149.35;100.00;64108.03;5035822;28;45478;-58
2023/05/22 05:27:42;;;;;;;;;15.00;12.00;;;;;-149.35;100.00;64108.03;5036106;28;45239;-62
2023/05/22 05:30:09;;;;;;;;;18.25;14.50;;;;;-149.35;100.00;64108.03;5036122;28;45361;-62
2023/05/22 05:32:35;;;;;;;;;13.60;12.60;;;;;-149.35;100.00;64108.03;5036503;28;45356;-62
2023/05/22 05:35:00;;;;;;;;;15.50;14.25;;;;;-149.35;100.00;64108.03;5035704;28;46324;-62
2023/05/22 05:37:26;;;;;;;;;12.75;11.50;;;;;-149.35;100.00;64108.03;5035977;28;45392;-62
2023/05/22 05:39:51;;;;;;;;;17.25;14.00;;;;;-149.35;100.00;64108.03;5036353;28;45275;-62
2023/05/22 05:42:16;;;;;;;;;14.00;12.50;;;;;-149.35;100.00;64108.03;5036494;28;45625;-62
2023/05/22 05:44:42;;;;;;;;;16.00;15.75;;;;;-149.35;100.00;64108.03;5035784;28;45894;-62
2023/05/22 05:47:07;;;;;;;;;14.25;13.00;;;;;-149.35;100.00;64108.03;5036156;28;45347;-63
2023/05/22 05:49:33;;;;;;;;;14.25;13.00;;;;;-149.35;100.00;64108.03;5036135;28;45406;-62
2023/05/22 05:51:58;;;;;;;;;14.25;13.00;;;;;-149.35;100.00;64108.03;5036388;28;45460;-62
2023/05/22 05:54:27;;;;;;;;;16.00;14.25;;;;;-149.35;100.00;64108.03;5035794;28;45291;-62
2023/05/22 05:56:52;;;;;;;;;16.40;15.00;;;;;-149.35;100.00;64108.03;5036042;28;45891;-62
2023/05/22 05:59:18;;;;;;;;;18.50;16.00;;;;;-149.35;100.00;64108.03;5034382;28;45424;-62
2023/05/22 06:01:44;;;;;;;;;12.00;11.75;;;;;-149.35;100.00;64108.03;5036040;28;45438;-55
2023/05/22 06:04:11;;;;;;;;;14.60;12.20;;;;;-149.35;100.00;64108.03;5035618;28;46462;-63
2023/05/22 06:06:38;;;;;;;;;17.00;17.00;;;;;-149.35;100.00;64108.03;5035546;28;45366;-61
2023/05/22 06:09:05;;;;;;;;;17.40;15.40;;;;;-149.35;100.00;64108.03;5035670;28;45337;-61
2023/05/22 06:11:31;;;;;;;;;19.40;16.60;;;;;-149.35;100.00;64108.03;5035519;28;45261;-61
2023/05/22 06:13:58;;;;;;;;;17.20;15.00;;;;;-149.35;100.00;64108.03;5035424;28;46677;-63
2023/05/22 06:16:24;;;;;;;;;19.00;16.00;;;;;-149.35;100.00;64108.03;5034775;28;45453;-62
2023/05/22 06:18:51;;;;;;;;;16.40;16.40;;;;;-149.35;100.00;64108.03;5035587;28;45442;-61
2023/05/22 06:21:19;;;;;;;;;16.00;12.40;;;;;-149.35;100.00;64108.03;5035810;28;45435;-63
2023/05/22 06:23:45;;;;;;;;;17.40;16.20;;;;;-149.35;100.00;64108.03;5016865;28;47623;-62
2023/05/22 06:26:11;;;;;;;;;18.00;17.80;;;;;-149.35;100.00;64108.03;5035355;28;45316;-63
2023/05/22 06:28:36;;;;;;;;;18.25;14.50;;;;;-149.35;100.00;64108.03;5034051;28;45344;-62
2023/05/22 06:31:02;;;;;;;;;15.75;15.75;;;;;-149.35;100.00;64108.03;5035756;28;45851;-62
2023/05/22 06:33:28;;;;;;;;;15.75;15.00;;;;;-149.35;100.00;64108.03;5000553;28;47353;-64
2023/05/22 06:35:54;;;;;;;;;14.25;14.25;;;;;-149.35;100.00;64108.03;5035013;28;45398;-63
2023/05/22 06:38:19;;;;;;;;;17.40;14.60;;;;;-149.35;100.00;64108.03;5035394;28;45362;-63
2023/05/22 06:40:45;;;;;;;;;15.50;15.50;;;;;-149.35;100.00;64108.03;5035145;28;45399;-62
2023/05/22 06:43:11;;;;;;;;;14.00;14.00;;;;;-149.35;100.00;64108.03;5034961;28;46371;-62
2023/05/22 06:45:37;;;;;;;;;15.00;13.00;;;;;-149.35;100.00;64108.03;4981063;28;45746;-62
2023/05/22 06:48:02;;;;;;;;;19.40;16.60;;;;;-149.35;100.00;64108.03;5033233;28;45295;-63
2023/05/22 06:50:28;;;;;;;;;20.75;19.25;;;;;-149.35;100.00;64108.03;5034996;28;45428;-63
2023/05/22 06:52:54;;;;;;;;;16.20;15.60;;;;;-149.35;100.00;64108.03;5016902;28;46328;-62
2023/05/22 06:55:19;;;;;;;;;13.25;11.75;;;;;-149.35;100.00;64108.03;5034600;28;45260;-63
2023/05/22 06:57:45;;;;;;;;;15.25;13.75;;;;;-149.35;100.00;64108.03;5034641;28;45297;-63
2023/05/22 07:00:11;;;;;;;;;16.50;13.50;;;;;-149.35;100.00;64108.03;5035153;28;45354;-63
2023/05/22 07:02:37;;;;;;;;;19.20;17.00;;;;;-149.35;100.00;64108.03;5034873;28;46690;-62
2023/05/22 07:05:03;;;;;;;;;16.25;15.00;;;;;-149.35;100.00;64108.03;5033009;28;45899;-62
2023/05/22 07:07:29;;;;;;;;;15.80;14.40;;;;;-149.35;100.00;64108.03;5035056;28;45344;-63
2023/05/22 07:09:55;;;;;;;;;17.00;16.60;;;;;-149.35;100.00;64108.03;5034970;28;45618;-63
2023/05/22 07:12:24;;;;;;;;;24.50;19.25;;;;;-149.35;100.00;64108.03;5034413;28;45961;-63
2023/05/22 07:14:51;;;;;;;;;19.20;18.60;;;;;-149.35;100.00;64108.03;5033181;28;45402;-64
2023/05/22 07:17:17;;;;;;;;;16.00;13.80;;;;;-149.35;100.00;64108.03;5033653;28;45356;-63
2023/05/22 07:19:43;;;;;;;;;19.80;16.40;;;;;-149.35;100.00;64108.03;5034488;28;45526;-64
2023/05/22 07:22:08;;;;;;;;;16.25;12.50;;;;;-149.35;100.00;64108.03;5034638;28;46425;-61
2023/05/22 07:24:34;;;;;;;;;20.75;18.00;;;;;-149.35;100.00;64108.03;5049739;28;45492;-61
2023/05/22 07:27:00;;;;;;;;;19.25;17.00;;;;;-149.35;100.00;64108.03;5016660;28;45367;-61
2023/05/22 07:29:25;;;;;;;;;18.75;18.00;;;;;-149.35;100.00;64108.03;5016314;28;45436;-60
2023/05/22 07:31:50;;;;;;;;;18.00;17.00;;;;;-149.35;100.00;64108.03;5016725;28;45408;-63
2023/05/22 07:34:16;;;;;;;;;18.75;16.50;;;;;-149.35;100.00;64108.03;5016007;28;45566;-64
2023/05/22 07:36:42;;;;;;;;;20.50;16.00;;;;;-149.35;100.00;64108.03;5016515;28;45410;-63
2023/05/22 07:39:08;;;;;;;;;17.40;17.40;;;;;-149.35;100.00;64108.03;5034470;28;45212;-64
2023/05/22 07:41:34;;;;;;;;;13.50;13.50;;;;;-149.35;100.00;64108.03;5034322;28;46277;-64
2023/05/22 07:43:59;;;;;;;;;19.75;18.25;;;;;-149.35;100.00;64108.03;5034350;28;45208;-64
2023/05/22 07:46:25;;;;;;;;;17.00;15.50;;;;;-149.35;100.00;64108.03;5033574;28;45338;-62
2023/05/22 07:48:50;;;;;;;;;17.00;16.00;;;;;-149.35;100.00;64108.03;5034540;28;45270;-63
2023/05/22 07:51:16;;;;;;;;;19.25;17.00;;;;;-149.35;100.00;64108.03;5031067;28;46378;-63
2023/05/22 07:53:41;;;;;;;;;21.50;17.25;;;;;-149.35;100.00;64108.03;5016812;28;45775;-63
2023/05/22 07:56:07;;;;;;;;;21.25;16.50;;;;;-149.35;100.00;64108.03;5034147;28;45428;-61
2023/05/22 07:58:32;;;;;;;;;18.75;16.75;;;;;-149.35;100.00;64108.03;5034322;28;45588;-62
2023/05/22 08:00:58;;;;;;;;;16.50;15.25;;;;;-149.35;100.00;64108.03;5033889;28;45669;-63
2023/05/22 08:03:23;;;;;;;;;18.50;16.25;;;;;-149.35;100.00;64108.03;5032786;28;45421;-62
2023/05/22 08:05:49;;;;;;;;;19.25;18.50;;;;;-149.35;100.00;64108.03;5034638;28;45294;-61
2023/05/22 08:08:14;;;;;;;;;21.00;16.00;;;;;-149.35;100.00;64108.03;5034673;28;45549;-58
2023/05/22 08:10:40;;;;;;;;;18.25;15.50;;;;;-149.35;100.00;64108.03;5033959;28;45554;-60
2023/05/22 08:13:05;;;;;;;;;24.00;20.50;;;;;-149.35;100.00;64108.03;5015995;28;45544;-60
2023/05/22 08:15:31;;;;;;;;;17.25;15.50;;;;;-149.35;100.00;64108.03;5033947;28;45386;-60
2023/05/22 08:17:57;;;;;;;;;18.80;16.80;;;;;-149.35;100.00;64108.03;5034240;28;45505;-61
2023/05/22 08:20:22;;;;;;;;;21.75;18.50;;;;;-149.35;100.00;64108.03;5015297;28;45755;-62
2023/05/22 08:22:48;;;;;;;;;20.75;18.75;;;;;-149.35;100.00;64108.03;5030544;28;45426;-62
2023/05/22 08:25:13;;;;;;;;;18.75;18.25;;;;;-149.35;100.00;64108.03;5043811;28;45362;-62
2023/05/22 08:27:39;;;;;;;;;19.75;18.50;;;;;-149.35;100.00;64108.03;5041821;28;45326;-61
2023/05/22 08:30:05;;;;;;;;;22.00;17.25;;;;;-149.35;100.00;64108.03;5035737;28;46635;-62
2023/05/22 08:32:31;;;;;;;;;19.60;18.60;;;;;-149.35;100.00;64108.03;5035031;28;45627;-57
2023/05/22 08:34:56;;;;;;;;;22.50;19.00;;;;;-149.35;100.00;64108.03;5021734;28;45933;-61
2023/05/22 08:37:21;;;;;;;;;19.25;19.25;;;;;-149.35;100.00;64108.03;5056706;28;45334;-61
2023/05/22 08:39:47;;;;;;;;;21.50;19.25;;;;;-149.35;100.00;64108.03;5041414;28;46437;-58
2023/05/22 08:42:12;;;;;;;;;24.50;19.00;;;;;-149.35;100.00;64108.03;5054846;28;45375;-61
2023/05/22 08:44:38;;;;;;;;;18.50;16.50;;;;;-149.35;100.00;64108.03;5016756;28;45405;-61
2023/05/22 08:47:08;;;;;;;;;21.25;19.75;;;;;-149.35;100.00;64108.03;5034152;28;45597;-62
2023/05/22 08:49:34;;;;;;;;;21.00;18.00;;;;;-149.35;100.00;64108.03;5035829;28;47296;-61
2023/05/22 08:52:04;;;;;;;;;20.75;19.00;;;;;-149.35;100.00;64108.03;5018246;28;45443;-61
2023/05/22 08:54:30;;;;;;;;;20.00;17.80;;;;;-149.35;100.00;64108.03;5053952;28;45354;-62
2023/05/22 08:56:56;;;;;;;;;20.20;17.00;;;;;-149.35;100.00;64108.03;5055191;28;45686;-61
2023/05/22 08:59:21;;;;;;;;;21.00;18.50;;;;;-149.35;100.00;64108.03;5051663;28;45877;-64
2023/05/22 09:01:47;;;;;;;;;21.25;18.25;;;;;-149.35;100.00;64108.03;5035844;28;45462;-63
2023/05/22 09:04:13;;;;;;;;;17.75;17.50;;;;;-149.35;100.00;64108.03;5018351;28;45343;-61
2023/05/22 09:06:38;;;;;;;;;16.20;15.20;;;;;-149.35;100.00;64108.03;5035487;28;45742;-59
2023/05/22 09:09:04;;;;;;;;;23.50;19.25;;;;;-149.35;100.00;64108.03;5032483;28;46398;-60
2023/05/22 09:11:30;;;;;;;;;18.75;17.25;;;;;-149.35;100.00;64108.03;5034007;28;45940;-61
2023/05/22 09:14:08;;;;;;;;;22.00;17.75;;;;;-149.35;100.00;64108.03;5028818;28;45746;-60
2023/05/22 09:16:43;;;;;;;;;18.20;15.80;;;;;-149.35;100.00;64108.03;5044411;28;45695;-61
2023/05/22 09:19:09;;;;;;;;;17.60;17.00;;;;;-149.35;100.00;64108.03;5034092;28;45487;-60
2023/05/22 09:21:35;;;;;;;;;21.00;18.75;;;;;-149.35;100.00;64108.03;5026138;28;45402;-60
2023/05/22 09:24:01;;;;;;;;;19.00;19.00;;;;;-149.35;100.00;64108.03;5031952;28;45796;-62
2023/05/22 09:26:27;;;;;;;;;24.25;19.50;;;;;-149.35;100.00;64108.03;5016110;28;45538;-61
2023/05/22 09:28:53;;;;;;;;;22.40;21.40;;;;;-149.35;100.00;64108.03;5034986;28;47347;-59
2023/05/22 09:31:18;;;;;;;;;26.25;22.75;;;;;-149.35;100.00;64108.03;5035742;28;45338;-59
2023/05/22 09:33:44;;;;;;;;;16.75;16.25;;;;;-149.35;100.00;64108.03;5013729;28;45271;-59
2023/05/22 09:36:10;;;;;;;;;20.80;19.60;;;;;-149.35;100.00;64108.03;5018667;28;45402;-60
2023/05/22 09:38:35;;;;;;;;;21.75;19.75;;;;;-149.35;100.00;64108.03;5014585;28;45405;-62
2023/05/22 09:41:01;;;;;;;;;21.25;19.25;;;;;-149.35;100.00;64108.03;5013123;28;45364;-62
2023/05/22 09:43:26;;;;;;;;;20.75;18.25;;;;;-149.35;100.00;64108.03;4981388;28;45675;-62
2023/05/22 09:46:10;;;;;;;;;23.00;20.25;;;;;-149.35;100.00;64108.03;5016066;28;45315;-60
2023/05/22 09:48:36;;;;;;;;;21.00;19.00;;;;;-149.35;100.00;64108.03;4996320;28;46284;-60
2023/05/22 09:51:02;;;;;;;;;18.75;16.25;;;;;-149.35;100.00;64108.03;5015235;28;45338;-56
2023/05/22 09:53:27;;;;;;;;;22.60;22.60;;;;;-149.35;100.00;64108.03;5015392;28;45784;-62
2023/05/22 09:55:57;;;;;;;;;21.50;20.75;;;;;-149.35;100.00;64108.03;5047664;28;45491;-62
2023/05/22 09:58:25;;;;;;;;;24.00;21.80;;;;;-149.35;100.00;64108.03;5047032;28;46462;-60
2023/05/22 10:00:50;;;;;;;;;18.20;18.00;;;;;-149.35;100.00;64108.03;5050107;28;45451;-60
2023/05/22 10:03:16;;;;;;;;;20.25;20.25;;;;;-149.35;100.00;64108.03;5015052;28;45296;-61
2023/05/22 10:05:48;;;;;;;;;17.80;16.60;;;;;-149.35;100.00;64108.03;5030587;28;45368;-56
2023/05/22 10:08:13;;;;;;;;;18.00;17.40;;;;;-149.35;100.00;64108.03;5030395;28;47056;-60
2023/05/22 10:10:39;;;;;;;;;20.25;20.25;;;;;-149.35;100.00;64108.03;5029393;28;45430;-60
2023/05/22 10:13:05;;;;;;;;;28.20;22.80;;;;;-149.35;100.00;64108.03;5019513;28;45414;-62
2023/05/22 10:15:31;;;;;;;;;26.25;21.50;;;;;-149.35;100.00;64108.03;5012011;28;45434;-60
2023/05/22 10:17:57;;;;;;;;;24.25;21.00;;;;;-149.35;100.00;64108.03;5011443;28;47073;-63
2023/05/22 10:20:23;;;;;;;;;21.40;20.20;;;;;-149.35;100.00;64108.03;5012912;28;45446;-60
2023/05/22 10:22:48;;;;;;;;;20.00;18.75;;;;;-149.35;100.00;64108.03;5029901;28;45481;-60
2023/05/22 10:25:14;;;;;;;;;20.50;20.25;;;;;-149.35;100.00;64108.03;5034723;28;45416;-61
2023/05/22 10:27:39;;;;;;;;;25.25;20.00;;;;;-149.35;100.00;64108.03;5001684;28;46086;-62
2023/05/22 10:30:07;;;;;;;;;23.50;20.50;;;;;-149.35;100.00;64108.03;5032645;28;45370;-62
2023/05/22 10:32:45;;;;;;;;;24.00;21.80;;;;;-149.35;100.00;64108.03;5029910;28;45411;-69
2023/05/22 10:35:20;;;;;;;;;18.60;18.40;;;;;-149.35;100.00;64108.03;5033400;28;45425;-60
2023/05/22 10:37:57;;;;;;;;;20.60;18.00;;;;;-149.35;100.00;64108.03;5045485;28;47575;-61
2023/05/22 10:40:27;;;;;;;;;21.20;18.60;;;;;-149.35;100.00;64108.03;5049093;28;45819;-60
2023/05/22 10:43:00;;;;;;;;;18.00;17.80;;;;;-149.35;100.00;64108.03;5049871;28;45375;-63
2023/05/22 10:45:30;;;;;;;;;19.00;17.20;;;;;-149.35;100.00;64108.03;5049688;28;45259;-62
2023/05/22 10:48:06;;;;;;;;;23.00;18.80;;;;;-149.35;100.00;64108.03;5030970;28;46585;-60
2023/05/22 10:50:35;;;;;;;;;26.80;19.00;;;;;-149.35;100.00;64108.03;5031653;28;45462;-61
2023/05/22 10:53:23;;;;;;;;;22.20;20.20;;;;;-149.35;100.00;64108.03;5013215;28;45456;-60